sensor_id;sensor_type;location;lat;lon;timestamp;temperature;humidity
74657;DHT22;63185;45.642;13.764;2023-12-28T00:01:28;13.60;68.70
74657;DHT22;63185;45.642;13.764;2023-12-28T00:03:53;13.60;68.30
74657;DHT22;63185;45.642;13.764;2023-12-28T00:06:19;13.60;68.70
74657;DHT22;63185;45.642;13.764;2023-12-28T00:08:44;13.60;68.70
74657;DHT22;63185;45.642;13.764;2023-12-28T00:11:10;13.60;68.20
74657;DHT22;63185;45.642;13.764;2023-12-28T00:13:36;13.60;68.20
74657;DHT22;63185;45.642;13.764;2023-12-28T00:16:01;13.60;68.20
74657;DHT22;63185;45.642;13.764;2023-12-28T00:18:27;13.60;68.00
74657;DHT22;63185;45.642;13.764;2023-12-28T00:20:53;13.60;68.10
74657;DHT22;63185;45.642;13.764;2023-12-28T00:23:19;13.60;67.90
74657;DHT22;63185;45.642;13.764;2023-12-28T00:25:48;13.60;67.40
74657;DHT22;63185;45.642;13.764;2023-12-28T00:28:13;13.60;67.60
74657;DHT22;63185;45.642;13.764;2023-12-28T00:30:39;13.60;67.60
74657;DHT22;63185;45.642;13.764;2023-12-28T00:33:05;13.60;67.30
74657;DHT22;63185;45.642;13.764;2023-12-28T00:35:31;13.60;67.50
74657;DHT22;63185;45.642;13.764;2023-12-28T00:37:56;13.60;66.40
74657;DHT22;63185;45.642;13.764;2023-12-28T00:40:22;13.60;66.10
74657;DHT22;63185;45.642;13.764;2023-12-28T00:42:48;13.60;65.90
74657;DHT22;63185;45.642;13.764;2023-12-28T00:45:19;13.60;65.30
74657;DHT22;63185;45.642;13.764;2023-12-28T00:47:44;13.60;65.40
74657;DHT22;63185;45.642;13.764;2023-12-28T00:50:10;13.60;66.00
74657;DHT22;63185;45.642;13.764;2023-12-28T00:52:41;13.60;66.00
74657;DHT22;63185;45.642;13.764;2023-12-28T00:55:06;13.60;66.60
74657;DHT22;63185;45.642;13.764;2023-12-28T00:57:33;13.60;66.80
74657;DHT22;63185;45.642;13.764;2023-12-28T00:59:59;13.60;66.80
74657;DHT22;63185;45.642;13.764;2023-12-28T01:02:25;13.50;65.80
74657;DHT22;63185;45.642;13.764;2023-12-28T01:04:50;13.50;65.10
74657;DHT22;63185;45.642;13.764;2023-12-28T01:07:16;13.60;64.90
74657;DHT22;63185;45.642;13.764;2023-12-28T01:09:41;13.60;64.40
74657;DHT22;63185;45.642;13.764;2023-12-28T01:12:07;13.60;64.50
74657;DHT22;63185;45.642;13.764;2023-12-28T01:14:33;13.60;64.90
74657;DHT22;63185;45.642;13.764;2023-12-28T01:16:58;13.60;65.30
74657;DHT22;63185;45.642;13.764;2023-12-28T01:19:24;13.70;65.60
74657;DHT22;63185;45.642;13.764;2023-12-28T01:21:50;13.70;66.20
74657;DHT22;63185;45.642;13.764;2023-12-28T01:24:16;13.60;65.30
74657;DHT22;63185;45.642;13.764;2023-12-28T01:26:41;13.60;65.40
74657;DHT22;63185;45.642;13.764;2023-12-28T01:29:07;13.60;66.00
74657;DHT22;63185;45.642;13.764;2023-12-28T01:31:33;13.60;65.70
74657;DHT22;63185;45.642;13.764;2023-12-28T01:33:59;13.60;66.00
74657;DHT22;63185;45.642;13.764;2023-12-28T01:36:24;13.60;65.50
74657;DHT22;63185;45.642;13.764;2023-12-28T01:38:51;13.60;65.90
74657;DHT22;63185;45.642;13.764;2023-12-28T01:41:17;13.60;65.60
74657;DHT22;63185;45.642;13.764;2023-12-28T01:43:43;13.60;65.60
74657;DHT22;63185;45.642;13.764;2023-12-28T01:46:13;13.60;65.00
74657;DHT22;63185;45.642;13.764;2023-12-28T01:48:39;13.60;65.60
74657;DHT22;63185;45.642;13.764;2023-12-28T01:51:05;13.60;65.40
74657;DHT22;63185;45.642;13.764;2023-12-28T01:53:31;13.60;65.30
74657;DHT22;63185;45.642;13.764;2023-12-28T01:55:57;13.60;65.20
74657;DHT22;63185;45.642;13.764;2023-12-28T01:58:24;13.60;65.30
74657;DHT22;63185;45.642;13.764;2023-12-28T02:00:51;13.60;65.60
74657;DHT22;63185;45.642;13.764;2023-12-28T02:03:17;13.50;65.10
74657;DHT22;63185;45.642;13.764;2023-12-28T02:05:43;13.60;65.30
74657;DHT22;63185;45.642;13.764;2023-12-28T02:08:08;13.50;65.30
74657;DHT22;63185;45.642;13.764;2023-12-28T02:10:34;13.50;65.10
74657;DHT22;63185;45.642;13.764;2023-12-28T02:13:00;13.60;65.20
74657;DHT22;63185;45.642;13.764;2023-12-28T02:15:25;13.50;65.70
74657;DHT22;63185;45.642;13.764;2023-12-28T02:18:00;13.60;65.40
74657;DHT22;63185;45.642;13.764;2023-12-28T02:20:29;13.60;65.90
74657;DHT22;63185;45.642;13.764;2023-12-28T02:22:57;13.60;65.30
74657;DHT22;63185;45.642;13.764;2023-12-28T02:25:23;13.60;65.40
74657;DHT22;63185;45.642;13.764;2023-12-28T02:27:49;13.60;66.10
74657;DHT22;63185;45.642;13.764;2023-12-28T02:30:22;13.60;65.40
74657;DHT22;63185;45.642;13.764;2023-12-28T02:35:43;13.60;65.80
74657;DHT22;63185;45.642;13.764;2023-12-28T02:38:12;13.60;65.80
74657;DHT22;63185;45.642;13.764;2023-12-28T02:40:42;13.60;65.50
74657;DHT22;63185;45.642;13.764;2023-12-28T02:43:10;13.60;65.30
74657;DHT22;63185;45.642;13.764;2023-12-28T02:45:37;13.60;65.30
74657;DHT22;63185;45.642;13.764;2023-12-28T02:48:04;13.60;65.20
74657;DHT22;63185;45.642;13.764;2023-12-28T02:50:30;13.60;65.60
74657;DHT22;63185;45.642;13.764;2023-12-28T02:52:56;13.70;65.70
74657;DHT22;63185;45.642;13.764;2023-12-28T02:55:22;13.60;65.80
74657;DHT22;63185;45.642;13.764;2023-12-28T02:57:53;13.60;65.40
74657;DHT22;63185;45.642;13.764;2023-12-28T03:00:24;13.70;65.60
74657;DHT22;63185;45.642;13.764;2023-12-28T03:02:50;13.70;65.50
74657;DHT22;63185;45.642;13.764;2023-12-28T03:05:16;13.70;65.80
74657;DHT22;63185;45.642;13.764;2023-12-28T03:07:42;13.60;65.70
74657;DHT22;63185;45.642;13.764;2023-12-28T03:10:08;13.60;66.00
74657;DHT22;63185;45.642;13.764;2023-12-28T03:12:35;13.60;66.20
74657;DHT22;63185;45.642;13.764;2023-12-28T03:15:00;13.70;66.10
74657;DHT22;63185;45.642;13.764;2023-12-28T03:17:26;13.60;65.60
74657;DHT22;63185;45.642;13.764;2023-12-28T03:19:52;13.60;66.10
74657;DHT22;63185;45.642;13.764;2023-12-28T03:22:18;13.60;65.70
74657;DHT22;63185;45.642;13.764;2023-12-28T03:24:44;13.60;65.80
74657;DHT22;63185;45.642;13.764;2023-12-28T03:27:10;13.60;66.10
74657;DHT22;63185;45.642;13.764;2023-12-28T03:29:36;13.60;65.60
74657;DHT22;63185;45.642;13.764;2023-12-28T03:32:02;13.60;65.60
74657;DHT22;63185;45.642;13.764;2023-12-28T03:34:28;13.60;66.10
74657;DHT22;63185;45.642;13.764;2023-12-28T03:36:55;13.60;65.70
74657;DHT22;63185;45.642;13.764;2023-12-28T03:39:21;13.60;65.70
74657;DHT22;63185;45.642;13.764;2023-12-28T03:41:50;13.60;65.60
74657;DHT22;63185;45.642;13.764;2023-12-28T03:44:15;13.60;65.80
74657;DHT22;63185;45.642;13.764;2023-12-28T03:46:41;13.60;65.80
74657;DHT22;63185;45.642;13.764;2023-12-28T03:49:07;13.60;65.70
74657;DHT22;63185;45.642;13.764;2023-12-28T03:51:32;13.60;65.90
74657;DHT22;63185;45.642;13.764;2023-12-28T03:53:58;13.70;65.70
74657;DHT22;63185;45.642;13.764;2023-12-28T03:56:27;13.60;65.70
74657;DHT22;63185;45.642;13.764;2023-12-28T03:58:53;13.60;66.20
74657;DHT22;63185;45.642;13.764;2023-12-28T04:01:22;13.60;66.10
74657;DHT22;63185;45.642;13.764;2023-12-28T04:03:49;13.60;66.50
74657;DHT22;63185;45.642;13.764;2023-12-28T04:06:15;13.70;66.70
74657;DHT22;63185;45.642;13.764;2023-12-28T04:08:41;13.60;66.40
74657;DHT22;63185;45.642;13.764;2023-12-28T04:11:08;13.70;66.10
74657;DHT22;63185;45.642;13.764;2023-12-28T04:13:34;13.70;66.60
74657;DHT22;63185;45.642;13.764;2023-12-28T04:16:00;13.70;66.50
74657;DHT22;63185;45.642;13.764;2023-12-28T04:18:26;13.70;66.70
74657;DHT22;63185;45.642;13.764;2023-12-28T04:20:51;13.70;66.60
74657;DHT22;63185;45.642;13.764;2023-12-28T04:23:17;13.70;66.70
74657;DHT22;63185;45.642;13.764;2023-12-28T04:25:43;13.70;66.30
74657;DHT22;63185;45.642;13.764;2023-12-28T04:28:08;13.70;66.30
74657;DHT22;63185;45.642;13.764;2023-12-28T04:30:34;13.70;66.60
74657;DHT22;63185;45.642;13.764;2023-12-28T04:33:00;13.60;66.60
74657;DHT22;63185;45.642;13.764;2023-12-28T04:35:26;13.60;67.10
74657;DHT22;63185;45.642;13.764;2023-12-28T04:37:52;13.70;65.80
74657;DHT22;63185;45.642;13.764;2023-12-28T04:40:18;13.70;65.60
74657;DHT22;63185;45.642;13.764;2023-12-28T04:42:44;13.80;65.60
74657;DHT22;63185;45.642;13.764;2023-12-28T04:45:10;13.80;65.70
74657;DHT22;63185;45.642;13.764;2023-12-28T04:47:36;13.80;65.80
74657;DHT22;63185;45.642;13.764;2023-12-28T04:50:03;13.80;65.60
74657;DHT22;63185;45.642;13.764;2023-12-28T04:52:29;13.80;65.10
74657;DHT22;63185;45.642;13.764;2023-12-28T04:54:54;13.90;65.00
74657;DHT22;63185;45.642;13.764;2023-12-28T04:57:20;13.90;65.00
74657;DHT22;63185;45.642;13.764;2023-12-28T04:59:46;13.90;65.10
74657;DHT22;63185;45.642;13.764;2023-12-28T05:02:12;13.80;65.10
74657;DHT22;63185;45.642;13.764;2023-12-28T05:04:37;13.90;64.80
74657;DHT22;63185;45.642;13.764;2023-12-28T05:07:06;13.90;65.90
74657;DHT22;63185;45.642;13.764;2023-12-28T05:09:32;13.90;67.00
74657;DHT22;63185;45.642;13.764;2023-12-28T05:11:57;13.80;67.20
74657;DHT22;63185;45.642;13.764;2023-12-28T05:14:23;13.80;68.60
74657;DHT22;63185;45.642;13.764;2023-12-28T05:16:49;13.80;69.80
74657;DHT22;63185;45.642;13.764;2023-12-28T05:19:15;13.90;70.60
74657;DHT22;63185;45.642;13.764;2023-12-28T05:21:40;13.90;71.30
74657;DHT22;63185;45.642;13.764;2023-12-28T05:24:06;13.80;71.90
74657;DHT22;63185;45.642;13.764;2023-12-28T05:26:32;13.80;72.40
74657;DHT22;63185;45.642;13.764;2023-12-28T05:28:58;13.70;72.70
74657;DHT22;63185;45.642;13.764;2023-12-28T05:31:23;13.60;73.40
74657;DHT22;63185;45.642;13.764;2023-12-28T05:33:49;13.60;73.20
74657;DHT22;63185;45.642;13.764;2023-12-28T05:36:14;13.60;73.70
74657;DHT22;63185;45.642;13.764;2023-12-28T05:38:40;13.60;73.80
74657;DHT22;63185;45.642;13.764;2023-12-28T05:41:06;13.70;73.60
74657;DHT22;63185;45.642;13.764;2023-12-28T05:43:31;13.70;73.70
74657;DHT22;63185;45.642;13.764;2023-12-28T05:45:57;13.60;73.90
74657;DHT22;63185;45.642;13.764;2023-12-28T05:48:23;13.60;74.20
74657;DHT22;63185;45.642;13.764;2023-12-28T05:50:48;13.60;74.50
74657;DHT22;63185;45.642;13.764;2023-12-28T05:53:14;13.70;74.40
74657;DHT22;63185;45.642;13.764;2023-12-28T05:55:41;13.70;74.30
74657;DHT22;63185;45.642;13.764;2023-12-28T05:58:07;13.70;74.40
74657;DHT22;63185;45.642;13.764;2023-12-28T06:00:32;13.70;74.40
74657;DHT22;63185;45.642;13.764;2023-12-28T06:02:58;13.70;74.50
74657;DHT22;63185;45.642;13.764;2023-12-28T06:05:24;13.70;74.50
74657;DHT22;63185;45.642;13.764;2023-12-28T06:07:49;13.70;74.60
74657;DHT22;63185;45.642;13.764;2023-12-28T06:10:15;13.60;74.60
74657;DHT22;63185;45.642;13.764;2023-12-28T06:12:40;13.70;74.60
74657;DHT22;63185;45.642;13.764;2023-12-28T06:15:07;13.70;74.50
74657;DHT22;63185;45.642;13.764;2023-12-28T06:17:32;13.60;74.50
74657;DHT22;63185;45.642;13.764;2023-12-28T06:19:58;13.70;74.30
74657;DHT22;63185;45.642;13.764;2023-12-28T06:22:24;13.60;74.20
74657;DHT22;63185;45.642;13.764;2023-12-28T06:24:55;13.60;74.00
74657;DHT22;63185;45.642;13.764;2023-12-28T06:27:21;13.70;73.70
74657;DHT22;63185;45.642;13.764;2023-12-28T06:29:47;13.70;73.40
74657;DHT22;63185;45.642;13.764;2023-12-28T06:32:13;13.70;73.50
74657;DHT22;63185;45.642;13.764;2023-12-28T06:34:39;13.70;73.50
74657;DHT22;63185;45.642;13.764;2023-12-28T06:37:05;13.70;73.40
74657;DHT22;63185;45.642;13.764;2023-12-28T06:39:30;13.60;73.30
74657;DHT22;63185;45.642;13.764;2023-12-28T06:41:56;13.60;73.30
74657;DHT22;63185;45.642;13.764;2023-12-28T06:44:22;13.60;73.40
74657;DHT22;63185;45.642;13.764;2023-12-28T06:46:47;13.60;73.40
74657;DHT22;63185;45.642;13.764;2023-12-28T06:49:13;13.70;73.40
74657;DHT22;63185;45.642;13.764;2023-12-28T06:51:39;13.60;73.30
74657;DHT22;63185;45.642;13.764;2023-12-28T06:54:05;13.70;73.30
74657;DHT22;63185;45.642;13.764;2023-12-28T06:56:30;13.70;73.20
74657;DHT22;63185;45.642;13.764;2023-12-28T06:58:56;13.70;73.30
74657;DHT22;63185;45.642;13.764;2023-12-28T07:01:22;13.60;73.20
74657;DHT22;63185;45.642;13.764;2023-12-28T07:03:47;13.70;73.00
74657;DHT22;63185;45.642;13.764;2023-12-28T07:06:13;13.60;73.10
74657;DHT22;63185;45.642;13.764;2023-12-28T07:08:39;13.60;73.60
74657;DHT22;63185;45.642;13.764;2023-12-28T07:11:05;13.60;73.60
74657;DHT22;63185;45.642;13.764;2023-12-28T07:13:31;13.60;73.40
74657;DHT22;63185;45.642;13.764;2023-12-28T07:15:57;13.60;73.20
74657;DHT22;63185;45.642;13.764;2023-12-28T07:18:22;13.60;73.20
74657;DHT22;63185;45.642;13.764;2023-12-28T07:20:48;13.60;73.20
74657;DHT22;63185;45.642;13.764;2023-12-28T07:23:14;13.70;73.10
74657;DHT22;63185;45.642;13.764;2023-12-28T07:25:40;13.70;73.00
74657;DHT22;63185;45.642;13.764;2023-12-28T07:28:06;13.70;72.50
74657;DHT22;63185;45.642;13.764;2023-12-28T07:30:32;13.60;71.70
74657;DHT22;63185;45.642;13.764;2023-12-28T07:32:57;13.70;71.40
74657;DHT22;63185;45.642;13.764;2023-12-28T07:35:23;13.70;71.10
74657;DHT22;63185;45.642;13.764;2023-12-28T07:37:49;13.70;70.80
74657;DHT22;63185;45.642;13.764;2023-12-28T07:40:15;13.70;70.70
74657;DHT22;63185;45.642;13.764;2023-12-28T07:42:41;13.80;70.10
74657;DHT22;63185;45.642;13.764;2023-12-28T07:45:07;13.70;69.90
74657;DHT22;63185;45.642;13.764;2023-12-28T07:47:32;13.80;69.80
74657;DHT22;63185;45.642;13.764;2023-12-28T07:49:59;13.80;69.60
74657;DHT22;63185;45.642;13.764;2023-12-28T07:52:26;13.80;69.00
74657;DHT22;63185;45.642;13.764;2023-12-28T07:54:51;13.90;69.00
74657;DHT22;63185;45.642;13.764;2023-12-28T07:57:18;13.80;69.50
74657;DHT22;63185;45.642;13.764;2023-12-28T07:59:43;13.90;69.80
74657;DHT22;63185;45.642;13.764;2023-12-28T08:02:09;13.90;69.20
74657;DHT22;63185;45.642;13.764;2023-12-28T08:04:35;14.00;69.30
74657;DHT22;63185;45.642;13.764;2023-12-28T08:07:01;13.90;69.20
74657;DHT22;63185;45.642;13.764;2023-12-28T08:09:26;14.00;69.30
74657;DHT22;63185;45.642;13.764;2023-12-28T08:11:52;14.00;69.50
74657;DHT22;63185;45.642;13.764;2023-12-28T08:14:18;13.90;69.40
74657;DHT22;63185;45.642;13.764;2023-12-28T08:16:44;14.00;69.40
74657;DHT22;63185;45.642;13.764;2023-12-28T08:19:10;14.00;68.90
74657;DHT22;63185;45.642;13.764;2023-12-28T08:21:36;14.00;68.70
74657;DHT22;63185;45.642;13.764;2023-12-28T08:24:02;14.00;69.10
74657;DHT22;63185;45.642;13.764;2023-12-28T08:26:27;14.00;68.80
74657;DHT22;63185;45.642;13.764;2023-12-28T08:28:53;14.00;68.90
74657;DHT22;63185;45.642;13.764;2023-12-28T08:31:19;14.00;68.70
74657;DHT22;63185;45.642;13.764;2023-12-28T08:33:45;14.10;68.70
74657;DHT22;63185;45.642;13.764;2023-12-28T08:36:13;14.10;68.90
74657;DHT22;63185;45.642;13.764;2023-12-28T08:38:39;14.10;68.60
74657;DHT22;63185;45.642;13.764;2023-12-28T08:41:04;14.10;68.40
74657;DHT22;63185;45.642;13.764;2023-12-28T08:43:35;14.10;68.70
74657;DHT22;63185;45.642;13.764;2023-12-28T08:46:01;14.10;68.80
74657;DHT22;63185;45.642;13.764;2023-12-28T08:48:27;14.10;68.70
74657;DHT22;63185;45.642;13.764;2023-12-28T08:50:53;14.10;68.70
74657;DHT22;63185;45.642;13.764;2023-12-28T08:53:18;14.10;68.90
74657;DHT22;63185;45.642;13.764;2023-12-28T08:55:44;14.10;68.90
74657;DHT22;63185;45.642;13.764;2023-12-28T08:58:10;14.10;68.90
74657;DHT22;63185;45.642;13.764;2023-12-28T09:00:35;14.10;69.30
74657;DHT22;63185;45.642;13.764;2023-12-28T09:03:01;14.20;69.50
74657;DHT22;63185;45.642;13.764;2023-12-28T09:05:26;14.20;69.70
74657;DHT22;63185;45.642;13.764;2023-12-28T09:07:52;14.20;70.10
74657;DHT22;63185;45.642;13.764;2023-12-28T09:10:18;14.20;70.00
74657;DHT22;63185;45.642;13.764;2023-12-28T09:12:43;14.20;69.90
74657;DHT22;63185;45.642;13.764;2023-12-28T09:15:09;14.20;70.00
74657;DHT22;63185;45.642;13.764;2023-12-28T09:17:35;14.20;69.90
74657;DHT22;63185;45.642;13.764;2023-12-28T09:20:01;14.20;69.80
74657;DHT22;63185;45.642;13.764;2023-12-28T09:22:27;14.20;69.60
74657;DHT22;63185;45.642;13.764;2023-12-28T09:24:52;14.20;69.40
74657;DHT22;63185;45.642;13.764;2023-12-28T09:27:18;14.30;69.00
74657;DHT22;63185;45.642;13.764;2023-12-28T09:29:44;14.20;69.10
74657;DHT22;63185;45.642;13.764;2023-12-28T09:32:10;14.20;69.10
74657;DHT22;63185;45.642;13.764;2023-12-28T09:34:35;14.30;68.60
74657;DHT22;63185;45.642;13.764;2023-12-28T09:37:01;14.30;68.90
74657;DHT22;63185;45.642;13.764;2023-12-28T09:39:27;14.30;68.70
74657;DHT22;63185;45.642;13.764;2023-12-28T09:42:00;14.30;68.00
74657;DHT22;63185;45.642;13.764;2023-12-28T09:44:30;14.40;67.60
74657;DHT22;63185;45.642;13.764;2023-12-28T09:46:56;14.40;67.50
74657;DHT22;63185;45.642;13.764;2023-12-28T09:49:23;14.30;67.80
74657;DHT22;63185;45.642;13.764;2023-12-28T09:51:49;14.40;68.10
74657;DHT22;63185;45.642;13.764;2023-12-28T09:54:15;14.40;68.10
74657;DHT22;63185;45.642;13.764;2023-12-28T09:56:42;14.40;67.60
74657;DHT22;63185;45.642;13.764;2023-12-28T09:59:08;14.40;67.60
74657;DHT22;63185;45.642;13.764;2023-12-28T10:01:34;14.40;67.60
74657;DHT22;63185;45.642;13.764;2023-12-28T10:04:00;14.50;67.70
74657;DHT22;63185;45.642;13.764;2023-12-28T10:06:28;14.40;67.50
74657;DHT22;63185;45.642;13.764;2023-12-28T10:08:54;14.50;67.10
74657;DHT22;63185;45.642;13.764;2023-12-28T10:11:21;14.40;67.10
74657;DHT22;63185;45.642;13.764;2023-12-28T10:13:48;14.50;67.30
74657;DHT22;63185;45.642;13.764;2023-12-28T10:16:15;14.40;68.10
74657;DHT22;63185;45.642;13.764;2023-12-28T10:18:42;14.40;67.70
74657;DHT22;63185;45.642;13.764;2023-12-28T10:21:08;14.50;67.50
74657;DHT22;63185;45.642;13.764;2023-12-28T10:23:34;14.50;67.70
74657;DHT22;63185;45.642;13.764;2023-12-28T10:25:59;14.50;67.60
74657;DHT22;63185;45.642;13.764;2023-12-28T10:28:26;14.60;67.80
74657;DHT22;63185;45.642;13.764;2023-12-28T10:30:56;14.60;67.60
74657;DHT22;63185;45.642;13.764;2023-12-28T10:33:22;14.60;67.50
74657;DHT22;63185;45.642;13.764;2023-12-28T10:35:50;14.60;67.00
74657;DHT22;63185;45.642;13.764;2023-12-28T10:38:16;14.70;67.00
74657;DHT22;63185;45.642;13.764;2023-12-28T10:40:44;14.70;66.90
74657;DHT22;63185;45.642;13.764;2023-12-28T10:43:14;14.70;67.00
74657;DHT22;63185;45.642;13.764;2023-12-28T10:45:41;14.80;66.80
74657;DHT22;63185;45.642;13.764;2023-12-28T10:48:10;14.80;66.50
74657;DHT22;63185;45.642;13.764;2023-12-28T10:50:52;14.90;66.40
74657;DHT22;63185;45.642;13.764;2023-12-28T10:53:45;14.90;66.50
74657;DHT22;63185;45.642;13.764;2023-12-28T10:56:32;14.90;66.70
74657;DHT22;63185;45.642;13.764;2023-12-28T11:01:39;14.80;66.30
74657;DHT22;63185;45.642;13.764;2023-12-28T11:06:35;14.90;66.40
74657;DHT22;63185;45.642;13.764;2023-12-28T11:09:01;14.90;66.40
74657;DHT22;63185;45.642;13.764;2023-12-28T11:11:27;14.90;66.90
74657;DHT22;63185;45.642;13.764;2023-12-28T11:13:55;15.00;66.60
74657;DHT22;63185;45.642;13.764;2023-12-28T11:16:22;15.00;66.60
74657;DHT22;63185;45.642;13.764;2023-12-28T11:18:48;15.10;66.20
74657;DHT22;63185;45.642;13.764;2023-12-28T11:21:16;15.10;66.10
74657;DHT22;63185;45.642;13.764;2023-12-28T11:23:43;15.10;66.10
74657;DHT22;63185;45.642;13.764;2023-12-28T11:26:20;15.10;66.00
74657;DHT22;63185;45.642;13.764;2023-12-28T11:28:46;15.10;66.20
74657;DHT22;63185;45.642;13.764;2023-12-28T11:31:15;15.20;65.80
74657;DHT22;63185;45.642;13.764;2023-12-28T11:33:44;15.10;65.70
74657;DHT22;63185;45.642;13.764;2023-12-28T11:36:10;15.10;65.30
74657;DHT22;63185;45.642;13.764;2023-12-28T11:38:39;15.10;65.60
74657;DHT22;63185;45.642;13.764;2023-12-28T11:41:05;15.10;65.60
74657;DHT22;63185;45.642;13.764;2023-12-28T11:43:34;15.10;65.90
74657;DHT22;63185;45.642;13.764;2023-12-28T11:46:00;15.00;65.80
74657;DHT22;63185;45.642;13.764;2023-12-28T11:48:27;15.00;66.10
74657;DHT22;63185;45.642;13.764;2023-12-28T11:50:56;14.90;66.20
74657;DHT22;63185;45.642;13.764;2023-12-28T11:53:22;14.90;66.50
74657;DHT22;63185;45.642;13.764;2023-12-28T11:55:49;14.90;66.70
74657;DHT22;63185;45.642;13.764;2023-12-28T11:58:19;14.90;66.70
74657;DHT22;63185;45.642;13.764;2023-12-28T12:00:45;15.00;66.60
74657;DHT22;63185;45.642;13.764;2023-12-28T12:03:13;14.90;66.90
74657;DHT22;63185;45.642;13.764;2023-12-28T12:05:39;14.80;67.90
74657;DHT22;63185;45.642;13.764;2023-12-28T12:08:09;14.70;70.00
74657;DHT22;63185;45.642;13.764;2023-12-28T12:10:39;14.50;71.60
74657;DHT22;63185;45.642;13.764;2023-12-28T12:13:04;14.30;72.20
74657;DHT22;63185;45.642;13.764;2023-12-28T12:15:30;14.10;72.60
74657;DHT22;63185;45.642;13.764;2023-12-28T12:17:56;14.00;73.00
74657;DHT22;63185;45.642;13.764;2023-12-28T12:20:22;14.10;73.00
74657;DHT22;63185;45.642;13.764;2023-12-28T12:22:48;14.10;72.50
74657;DHT22;63185;45.642;13.764;2023-12-28T12:25:16;14.10;72.00
74657;DHT22;63185;45.642;13.764;2023-12-28T12:27:45;14.10;72.20
74657;DHT22;63185;45.642;13.764;2023-12-28T12:30:11;14.20;71.50
74657;DHT22;63185;45.642;13.764;2023-12-28T12:32:37;14.10;72.00
74657;DHT22;63185;45.642;13.764;2023-12-28T12:35:05;14.20;71.70
74657;DHT22;63185;45.642;13.764;2023-12-28T12:37:31;14.30;72.00
74657;DHT22;63185;45.642;13.764;2023-12-28T12:39:57;14.30;71.40
74657;DHT22;63185;45.642;13.764;2023-12-28T12:42:23;14.30;71.30
74657;DHT22;63185;45.642;13.764;2023-12-28T12:44:49;14.40;71.20
74657;DHT22;63185;45.642;13.764;2023-12-28T12:47:15;14.30;72.90
74657;DHT22;63185;45.642;13.764;2023-12-28T12:49:41;14.10;73.60
74657;DHT22;63185;45.642;13.764;2023-12-28T12:52:08;14.10;72.20
74657;DHT22;63185;45.642;13.764;2023-12-28T12:54:34;14.10;72.10
74657;DHT22;63185;45.642;13.764;2023-12-28T12:57:00;14.10;72.30
74657;DHT22;63185;45.642;13.764;2023-12-28T12:59:26;14.20;72.20
74657;DHT22;63185;45.642;13.764;2023-12-28T13:01:52;14.20;71.80
74657;DHT22;63185;45.642;13.764;2023-12-28T13:04:20;14.20;71.50
74657;DHT22;63185;45.642;13.764;2023-12-28T13:06:47;14.40;71.30
74657;DHT22;63185;45.642;13.764;2023-12-28T13:09:12;14.50;70.80
74657;DHT22;63185;45.642;13.764;2023-12-28T13:11:38;14.60;70.30
74657;DHT22;63185;45.642;13.764;2023-12-28T13:14:04;14.60;70.10
74657;DHT22;63185;45.642;13.764;2023-12-28T13:16:30;14.70;70.20
74657;DHT22;63185;45.642;13.764;2023-12-28T13:18:56;14.80;69.40
74657;DHT22;63185;45.642;13.764;2023-12-28T13:21:23;14.80;69.00
74657;DHT22;63185;45.642;13.764;2023-12-28T13:23:48;14.90;69.00
74657;DHT22;63185;45.642;13.764;2023-12-28T13:26:14;14.90;69.10
74657;DHT22;63185;45.642;13.764;2023-12-28T13:28:40;15.00;68.90
74657;DHT22;63185;45.642;13.764;2023-12-28T13:31:08;15.20;68.70
74657;DHT22;63185;45.642;13.764;2023-12-28T13:33:33;15.20;67.90
74657;DHT22;63185;45.642;13.764;2023-12-28T13:35:59;15.20;68.10
74657;DHT22;63185;45.642;13.764;2023-12-28T13:38:25;15.30;68.30
74657;DHT22;63185;45.642;13.764;2023-12-28T13:40:51;15.30;68.00
74657;DHT22;63185;45.642;13.764;2023-12-28T13:43:17;15.30;68.40
74657;DHT22;63185;45.642;13.764;2023-12-28T13:45:42;15.40;68.40
74657;DHT22;63185;45.642;13.764;2023-12-28T13:48:08;15.40;68.40
74657;DHT22;63185;45.642;13.764;2023-12-28T13:50:34;15.50;68.50
74657;DHT22;63185;45.642;13.764;2023-12-28T13:53:00;15.60;67.90
74657;DHT22;63185;45.642;13.764;2023-12-28T13:55:25;15.60;67.90
74657;DHT22;63185;45.642;13.764;2023-12-28T13:57:53;15.60;67.80
74657;DHT22;63185;45.642;13.764;2023-12-28T14:00:19;15.50;68.30
74657;DHT22;63185;45.642;13.764;2023-12-28T14:02:45;15.50;68.40
74657;DHT22;63185;45.642;13.764;2023-12-28T14:05:10;15.60;68.40
74657;DHT22;63185;45.642;13.764;2023-12-28T14:07:36;15.50;68.30
74657;DHT22;63185;45.642;13.764;2023-12-28T14:10:02;15.50;68.50
74657;DHT22;63185;45.642;13.764;2023-12-28T14:12:28;15.50;68.60
74657;DHT22;63185;45.642;13.764;2023-12-28T14:14:54;15.50;68.70
74657;DHT22;63185;45.642;13.764;2023-12-28T14:17:20;15.60;68.80
74657;DHT22;63185;45.642;13.764;2023-12-28T14:19:46;15.40;69.10
74657;DHT22;63185;45.642;13.764;2023-12-28T14:22:12;15.30;69.50
74657;DHT22;63185;45.642;13.764;2023-12-28T14:24:38;15.40;69.50
74657;DHT22;63185;45.642;13.764;2023-12-28T14:27:04;15.30;69.50
74657;DHT22;63185;45.642;13.764;2023-12-28T14:29:30;15.30;69.40
74657;DHT22;63185;45.642;13.764;2023-12-28T14:31:56;15.10;69.60
74657;DHT22;63185;45.642;13.764;2023-12-28T14:34:22;15.10;69.90
74657;DHT22;63185;45.642;13.764;2023-12-28T14:36:50;15.00;70.40
74657;DHT22;63185;45.642;13.764;2023-12-28T14:39:18;15.00;70.60
74657;DHT22;63185;45.642;13.764;2023-12-28T14:41:46;15.00;70.50
74657;DHT22;63185;45.642;13.764;2023-12-28T14:44:12;15.00;70.40
74657;DHT22;63185;45.642;13.764;2023-12-28T14:46:38;14.90;70.60
74657;DHT22;63185;45.642;13.764;2023-12-28T14:49:03;14.80;70.80
74657;DHT22;63185;45.642;13.764;2023-12-28T14:51:32;14.80;70.80
74657;DHT22;63185;45.642;13.764;2023-12-28T14:53:57;14.80;70.90
74657;DHT22;63185;45.642;13.764;2023-12-28T14:56:23;14.80;70.80
74657;DHT22;63185;45.642;13.764;2023-12-28T14:58:49;14.70;71.10
74657;DHT22;63185;45.642;13.764;2023-12-28T15:01:15;14.60;71.60
74657;DHT22;63185;45.642;13.764;2023-12-28T15:03:41;14.60;72.00
74657;DHT22;63185;45.642;13.764;2023-12-28T15:06:07;14.60;72.10
74657;DHT22;63185;45.642;13.764;2023-12-28T15:08:33;14.50;72.50
74657;DHT22;63185;45.642;13.764;2023-12-28T15:10:59;14.60;72.50
74657;DHT22;63185;45.642;13.764;2023-12-28T15:13:26;14.60;72.60
74657;DHT22;63185;45.642;13.764;2023-12-28T15:15:52;14.60;73.00
74657;DHT22;63185;45.642;13.764;2023-12-28T15:18:18;14.50;73.20